createdAt,value
2018-07-05T00:00:14.140Z,0.00
2018-07-05T00:01:14.130Z,0.00
2018-07-05T00:02:14.118Z,0.00
2018-07-05T00:03:14.105Z,0.00
2018-07-05T00:04:14.116Z,0.00
2018-07-05T00:05:14.145Z,0.00
2018-07-05T00:06:14.077Z,0.00
2018-07-05T00:07:14.064Z,0.00
2018-07-05T00:08:14.053Z,0.00
2018-07-05T00:09:14.062Z,0.00
2018-07-05T00:10:14.030Z,0.00
2018-07-05T00:11:14.028Z,0.00
2018-07-05T00:12:14.009Z,0.00
2018-07-05T00:13:13.999Z,0.00
2018-07-05T00:14:14.007Z,0.00
2018-07-05T00:15:13.975Z,0.00
2018-07-05T00:16:13.966Z,0.00
2018-07-05T00:17:13.965Z,0.00
2018-07-05T00:18:13.942Z,0.00
2018-07-05T00:19:13.952Z,0.00
2018-07-05T00:20:13.921Z,0.00
2018-07-05T00:21:13.913Z,0.00
2018-07-05T00:22:13.901Z,0.00
2018-07-05T00:23:13.899Z,0.00
2018-07-05T00:24:13.898Z,0.00
2018-07-05T00:25:13.868Z,0.00
2018-07-05T00:26:13.856Z,0.00
2018-07-05T00:27:13.847Z,0.00
2018-07-05T00:28:13.833Z,0.00
2018-07-05T00:29:13.859Z,0.00
2018-07-05T00:30:13.813Z,0.00
2018-07-05T00:31:13.804Z,0.00
2018-07-05T00:32:13.790Z,0.00
2018-07-05T00:33:13.779Z,0.00
2018-07-05T00:34:13.788Z,0.00
2018-07-05T00:35:13.770Z,0.00
2018-07-05T00:36:13.747Z,0.00
2018-07-05T00:37:13.745Z,0.00
2018-07-05T00:38:13.725Z,0.00
2018-07-05T00:39:13.734Z,0.00
2018-07-05T00:40:13.704Z,0.00
2018-07-05T00:41:13.705Z,0.00
2018-07-05T00:42:13.689Z,0.00
2018-07-05T00:43:13.669Z,0.00
2018-07-05T00:44:13.681Z,0.00
2018-07-05T00:45:13.648Z,0.00
2018-07-05T00:46:13.638Z,0.00
2018-07-05T00:47:13.644Z,0.00
2018-07-05T00:48:13.616Z,0.00
2018-07-05T00:49:13.626Z,0.00
2018-07-05T00:50:13.594Z,0.00
2018-07-05T00:51:13.589Z,0.00
2018-07-05T00:52:13.572Z,0.00
2018-07-05T00:53:13.574Z,0.00
2018-07-05T00:54:13.570Z,0.00
2018-07-05T00:55:13.539Z,0.00
2018-07-05T00:56:13.529Z,0.00
2018-07-05T00:57:13.518Z,0.00
2018-07-05T00:58:13.507Z,0.00
2018-07-05T00:59:13.524Z,0.00
2018-07-05T01:00:13.485Z,0.00
2018-07-05T01:01:13.475Z,0.00
2018-07-05T01:02:13.465Z,0.00
2018-07-05T01:03:13.454Z,0.00
2018-07-05T01:04:13.465Z,0.00
2018-07-05T01:05:13.435Z,0.00
2018-07-05T01:06:13.420Z,0.00
2018-07-05T01:07:13.413Z,0.00
2018-07-05T01:08:13.398Z,0.00
2018-07-05T01:09:13.406Z,0.00
2018-07-05T01:10:13.375Z,0.00
2018-07-05T01:11:13.381Z,0.00
2018-07-05T01:12:13.355Z,0.00
2018-07-05T01:13:13.343Z,0.00
2018-07-05T01:14:13.350Z,0.00
2018-07-05T01:15:13.322Z,0.00
2018-07-05T01:16:13.310Z,0.00
2018-07-05T01:17:13.308Z,0.00
2018-07-05T01:18:13.289Z,0.00
2018-07-05T01:19:13.300Z,0.00
2018-07-05T01:20:13.267Z,0.00
2018-07-05T01:21:13.257Z,0.00
2018-07-05T01:22:13.268Z,0.00
2018-07-05T01:23:13.241Z,0.00
2018-07-05T01:24:13.223Z,0.00
2018-07-05T01:25:13.236Z,0.00
2018-07-05T01:26:13.203Z,0.00
2018-07-05T01:27:13.193Z,0.00
2018-07-05T01:28:13.180Z,0.00
2018-07-05T01:29:13.179Z,0.00
2018-07-05T01:30:13.179Z,0.00
2018-07-05T01:31:13.146Z,0.00
2018-07-05T01:32:13.136Z,0.00
2018-07-05T01:33:13.127Z,0.00
2018-07-05T01:34:13.114Z,0.00
2018-07-05T01:35:13.139Z,0.00
2018-07-05T01:36:13.092Z,0.00
2018-07-05T01:37:13.081Z,0.00
2018-07-05T01:38:13.070Z,0.00
2018-07-05T01:39:13.061Z,0.00
2018-07-05T01:40:13.071Z,0.00
2018-07-05T01:41:13.047Z,0.00
2018-07-05T01:42:13.027Z,0.00
2018-07-05T01:43:13.016Z,0.00
2018-07-05T01:44:13.009Z,0.00
2018-07-05T01:45:13.019Z,0.00
2018-07-05T01:46:12.983Z,0.00
2018-07-05T01:47:12.984Z,0.00
2018-07-05T01:48:12.962Z,0.00
2018-07-05T01:49:12.950Z,0.00
2018-07-05T01:50:12.962Z,0.00
2018-07-05T01:51:12.930Z,0.00
2018-07-05T01:52:12.917Z,0.00
2018-07-05T01:53:12.915Z,0.00
2018-07-05T01:54:12.895Z,0.00
2018-07-05T01:55:12.908Z,0.00
2018-07-05T01:56:12.876Z,0.00
2018-07-05T01:57:12.875Z,0.00
2018-07-05T01:58:12.852Z,0.00
2018-07-05T01:59:12.855Z,0.00
2018-07-05T02:00:12.856Z,0.00
2018-07-05T02:01:12.821Z,0.00
2018-07-05T02:02:12.809Z,0.00
2018-07-05T02:03:12.798Z,0.00
2018-07-05T02:04:12.787Z,0.00
2018-07-05T02:05:12.811Z,0.00
2018-07-05T02:06:12.768Z,0.00
2018-07-05T02:07:12.755Z,0.00
2018-07-05T02:08:12.746Z,0.00
2018-07-05T02:09:12.735Z,0.00
2018-07-05T02:10:12.740Z,0.00
2018-07-05T02:11:12.721Z,0.00
2018-07-05T02:12:12.700Z,0.00
2018-07-05T02:13:12.690Z,0.00
2018-07-05T02:14:12.679Z,0.00
2018-07-05T02:15:12.686Z,0.00
2018-07-05T02:16:12.657Z,0.00
2018-07-05T02:17:12.655Z,0.00
2018-07-05T02:18:12.639Z,0.00
2018-07-05T02:19:12.625Z,0.00
2018-07-05T02:20:12.632Z,0.00
2018-07-05T02:21:12.603Z,0.00
2018-07-05T02:22:12.591Z,0.00
2018-07-05T02:23:12.590Z,0.00
2018-07-05T02:24:12.569Z,0.00
2018-07-05T02:25:12.579Z,0.00
2018-07-05T02:26:12.551Z,0.00
2018-07-05T02:27:12.537Z,0.00
2018-07-05T02:28:12.526Z,0.00
2018-07-05T02:29:12.525Z,0.00
2018-07-05T02:30:12.525Z,0.00
2018-07-05T02:31:12.499Z,0.00
2018-07-05T02:32:12.484Z,0.00
2018-07-05T02:33:12.474Z,0.00
2018-07-05T02:34:12.464Z,0.00
2018-07-05T02:35:12.482Z,0.00
2018-07-05T02:36:12.439Z,0.00
2018-07-05T02:37:12.428Z,0.00
2018-07-05T02:38:12.419Z,0.00
2018-07-05T02:39:12.407Z,0.00
2018-07-05T02:40:12.423Z,0.00
2018-07-05T02:41:12.396Z,0.00
2018-07-05T02:42:12.376Z,0.00
2018-07-05T02:43:12.363Z,0.00
2018-07-05T02:44:12.352Z,0.00
2018-07-05T02:45:12.341Z,0.00
2018-07-05T02:46:12.351Z,0.00
2018-07-05T02:47:12.329Z,0.00
2018-07-05T02:48:12.310Z,0.00
2018-07-05T02:49:12.298Z,0.00
2018-07-05T02:50:12.288Z,0.00
2018-07-05T02:51:12.299Z,0.00
2018-07-05T02:52:12.265Z,0.00
2018-07-05T02:53:12.260Z,0.00
2018-07-05T02:54:12.242Z,0.00
2018-07-05T02:55:12.232Z,0.00
2018-07-05T02:56:12.241Z,0.00
2018-07-05T02:57:12.211Z,0.00
2018-07-05T02:58:12.199Z,0.00
2018-07-05T02:59:12.194Z,0.00
2018-07-05T03:00:12.177Z,0.00
2018-07-05T03:01:12.188Z,0.00
2018-07-05T03:02:12.159Z,0.00
2018-07-05T03:03:12.152Z,0.00
2018-07-05T03:04:12.134Z,0.00
2018-07-05T03:05:12.132Z,0.00
2018-07-05T03:06:12.132Z,0.00
2018-07-05T03:07:12.103Z,0.00
2018-07-05T03:08:12.091Z,0.00
2018-07-05T03:09:12.084Z,0.00
2018-07-05T03:10:12.070Z,0.00
2018-07-05T03:11:12.086Z,0.00
2018-07-05T03:12:12.047Z,0.00
2018-07-05T03:13:12.039Z,0.00
2018-07-05T03:14:12.025Z,0.00
2018-07-05T03:15:12.014Z,4.00
2018-07-05T03:16:12.025Z,4.00
2018-07-05T03:17:12.004Z,4.00
2018-07-05T03:18:11.983Z,4.00
2018-07-05T03:19:11.971Z,4.00
2018-07-05T03:20:11.965Z,4.00
2018-07-05T03:21:11.969Z,0.00
2018-07-05T03:22:11.937Z,4.00
2018-07-05T03:23:11.938Z,4.00
2018-07-05T03:24:11.917Z,4.00
2018-07-05T03:25:11.908Z,4.00
2018-07-05T03:26:11.915Z,8.00
2018-07-05T03:27:11.883Z,4.00
2018-07-05T03:28:11.873Z,4.00
2018-07-05T03:29:11.870Z,8.00
2018-07-05T03:30:11.854Z,8.00
2018-07-05T03:31:11.860Z,8.00
2018-07-05T03:32:11.831Z,8.00
2018-07-05T03:33:11.819Z,12.00
2018-07-05T03:34:11.807Z,8.00
2018-07-05T03:35:11.806Z,12.00
2018-07-05T03:36:11.805Z,12.00
2018-07-05T03:37:11.777Z,12.00
2018-07-05T03:38:11.762Z,12.00
2018-07-05T03:39:11.751Z,12.00
2018-07-05T03:40:11.742Z,16.00
2018-07-05T03:41:11.761Z,16.00
2018-07-05T03:42:11.721Z,12.00
2018-07-05T03:43:11.709Z,16.00
2018-07-05T03:44:11.699Z,16.00
2018-07-05T03:45:11.686Z,20.00
2018-07-05T03:46:11.696Z,20.00
2018-07-05T03:47:11.671Z,20.00
2018-07-05T03:48:11.654Z,24.00
2018-07-05T03:49:11.645Z,20.00
2018-07-05T03:50:11.631Z,20.00
2018-07-05T03:51:11.641Z,20.00
2018-07-05T03:52:11.613Z,20.00
2018-07-05T03:53:11.614Z,24.00
2018-07-05T03:54:11.588Z,28.00
2018-07-05T03:55:11.578Z,24.00
2018-07-05T03:56:11.588Z,24.00
2018-07-05T03:57:11.556Z,28.00
2018-07-05T03:58:11.550Z,28.00
2018-07-05T03:59:11.550Z,28.00
2018-07-05T04:00:11.524Z,28.00
2018-07-05T04:01:11.532Z,28.00
2018-07-05T04:02:11.500Z,28.00
2018-07-05T04:03:11.491Z,32.00
2018-07-05T04:04:11.478Z,28.00
2018-07-05T04:05:11.477Z,32.00
2018-07-05T04:06:11.478Z,36.00
2018-07-05T04:07:11.446Z,36.00
2018-07-05T04:08:11.453Z,36.00
2018-07-05T04:09:11.424Z,40.00
2018-07-05T04:10:11.415Z,36.00
2018-07-05T04:11:11.431Z,40.00
2018-07-05T04:12:11.391Z,40.00
2018-07-05T04:13:11.382Z,40.00
2018-07-05T04:14:11.374Z,40.00
2018-07-05T04:15:11.359Z,44.00
2018-07-05T04:16:11.368Z,44.00
2018-07-05T04:17:11.341Z,52.00
2018-07-05T04:18:11.326Z,52.00
2018-07-05T04:19:11.315Z,48.00
2018-07-05T04:20:11.304Z,52.00
2018-07-05T04:21:11.315Z,56.00
2018-07-05T04:22:11.284Z,52.00
2018-07-05T04:23:11.279Z,56.00
2018-07-05T04:24:11.260Z,56.00
2018-07-05T04:25:11.252Z,60.00
2018-07-05T04:26:11.260Z,64.00
2018-07-05T04:27:11.250Z,64.00
2018-07-05T04:28:11.217Z,64.00
2018-07-05T04:29:11.221Z,64.00
2018-07-05T04:30:11.196Z,68.00
2018-07-05T04:31:11.185Z,72.00
2018-07-05T04:32:11.196Z,76.00
2018-07-05T04:33:11.166Z,76.00
2018-07-05T04:34:11.192Z,80.00
2018-07-05T04:35:11.144Z,84.00
2018-07-05T04:36:11.130Z,88.00
2018-07-05T04:37:11.137Z,88.00
2018-07-05T04:38:11.111Z,92.00
2018-07-05T04:39:11.098Z,96.00
2018-07-05T04:40:11.094Z,96.00
2018-07-05T04:41:11.076Z,100.00
2018-07-05T04:42:11.084Z,100.00
2018-07-05T04:43:11.054Z,100.00
2018-07-05T04:44:11.044Z,104.00
2018-07-05T04:45:11.031Z,108.00
2018-07-05T04:46:11.034Z,108.00
2018-07-05T04:47:11.030Z,116.00
2018-07-05T04:48:10.998Z,116.00
2018-07-05T04:49:10.989Z,112.00
2018-07-05T04:50:10.979Z,112.00
2018-07-05T04:51:10.965Z,108.00
2018-07-05T04:52:10.986Z,108.00
2018-07-05T04:53:10.945Z,108.00
2018-07-05T04:54:10.937Z,104.00
2018-07-05T04:55:10.924Z,104.00
2018-07-05T04:56:10.912Z,100.00
2018-07-05T04:57:10.921Z,100.00
2018-07-05T04:58:10.897Z,96.00
2018-07-05T04:59:10.880Z,96.00
2018-07-05T05:00:10.871Z,96.00
2018-07-05T05:01:10.856Z,104.00
2018-07-05T05:02:10.866Z,108.00
2018-07-05T05:03:10.836Z,112.00
2018-07-05T05:04:10.824Z,112.00
2018-07-05T05:05:10.821Z,112.00
2018-07-05T05:06:10.810Z,112.00
2018-07-05T05:07:10.813Z,112.00
2018-07-05T05:08:10.781Z,112.00
2018-07-05T05:09:10.771Z,108.00
2018-07-05T05:10:10.760Z,104.00
2018-07-05T05:11:10.748Z,104.00
2018-07-05T05:12:10.765Z,104.00
2018-07-05T05:13:10.725Z,104.00
2018-07-05T05:14:10.714Z,104.00
2018-07-05T05:15:10.706Z,104.00
2018-07-05T05:16:10.694Z,104.00
2018-07-05T05:17:10.705Z,104.00
2018-07-05T05:18:10.676Z,108.00
2018-07-05T05:19:10.661Z,108.00
2018-07-05T05:20:10.649Z,108.00
2018-07-05T05:21:10.640Z,112.00
2018-07-05T05:22:10.648Z,112.00
2018-07-05T05:23:10.620Z,116.00
2018-07-05T05:24:10.642Z,116.00
2018-07-05T05:25:10.595Z,120.00
2018-07-05T05:26:10.584Z,124.00
2018-07-05T05:27:10.593Z,124.00
2018-07-05T05:28:10.564Z,124.00
2018-07-05T05:29:10.553Z,124.00
2018-07-05T05:30:10.549Z,120.00
2018-07-05T05:31:10.529Z,116.00
2018-07-05T05:32:10.539Z,116.00
2018-07-05T05:33:10.508Z,116.00
2018-07-05T05:34:10.497Z,112.00
2018-07-05T05:35:10.486Z,112.00
2018-07-05T05:36:10.482Z,112.00
2018-07-05T05:37:10.486Z,112.00
2018-07-05T05:38:10.453Z,112.00
2018-07-05T05:39:10.444Z,120.00
2018-07-05T05:40:10.431Z,120.00
2018-07-05T05:41:10.429Z,120.00
2018-07-05T05:42:10.436Z,124.00
2018-07-05T05:43:10.400Z,132.00
2018-07-05T05:44:10.389Z,136.00
2018-07-05T05:45:10.377Z,144.00
2018-07-05T05:46:10.369Z,144.00
2018-07-05T05:47:10.375Z,144.00
2018-07-05T05:48:10.360Z,148.00
2018-07-05T05:49:10.335Z,148.00
2018-07-05T05:50:10.322Z,232.00
2018-07-05T05:51:10.312Z,228.00
2018-07-05T05:52:10.324Z,224.00
2018-07-05T05:53:10.290Z,220.00
2018-07-05T05:54:10.321Z,220.00
2018-07-05T05:55:10.267Z,220.00
2018-07-05T05:56:10.257Z,224.00
2018-07-05T05:57:10.267Z,224.00
2018-07-05T05:58:10.234Z,224.00
2018-07-05T05:59:10.224Z,228.00
2018-07-05T06:00:10.214Z,228.00
2018-07-05T06:01:10.213Z,232.00
2018-07-05T06:02:10.213Z,232.00
2018-07-05T06:03:10.180Z,228.00
2018-07-05T06:04:10.172Z,228.00
2018-07-05T06:05:10.172Z,232.00
2018-07-05T06:06:10.147Z,236.00
2018-07-05T06:07:10.157Z,244.00
2018-07-05T06:08:10.250Z,252.00
2018-07-05T06:09:10.118Z,256.00
2018-07-05T06:10:10.105Z,260.00
2018-07-05T06:11:10.104Z,264.00
2018-07-05T06:12:10.112Z,272.00
2018-07-05T06:13:10.072Z,276.00
2018-07-05T06:14:10.059Z,280.00
2018-07-05T06:15:10.049Z,276.00
2018-07-05T06:16:10.048Z,272.00
2018-07-05T06:17:10.026Z,268.00
2018-07-05T06:18:10.039Z,264.00
2018-07-05T06:19:10.029Z,264.00
2018-07-05T06:20:09.994Z,260.00
2018-07-05T06:21:09.986Z,260.00
2018-07-05T06:22:09.982Z,256.00
2018-07-05T06:23:09.985Z,248.00
2018-07-05T06:24:09.951Z,252.00
2018-07-05T06:25:09.941Z,256.00
2018-07-05T06:26:09.928Z,264.00
2018-07-05T06:27:09.917Z,272.00
2018-07-05T06:28:09.939Z,276.00
2018-07-05T06:29:09.896Z,276.00
2018-07-05T06:30:09.886Z,276.00
2018-07-05T06:31:09.880Z,272.00
2018-07-05T06:32:09.863Z,272.00
2018-07-05T06:33:09.871Z,276.00
2018-07-05T06:34:09.889Z,284.00
2018-07-05T06:35:09.830Z,288.00
2018-07-05T06:36:09.820Z,292.00
2018-07-05T06:37:09.807Z,296.00
2018-07-05T06:38:09.817Z,308.00
2018-07-05T06:39:09.787Z,308.00
2018-07-05T06:40:09.788Z,312.00
2018-07-05T06:41:09.765Z,316.00
2018-07-05T06:42:09.753Z,320.00
2018-07-05T06:43:09.762Z,320.00
2018-07-05T06:44:09.731Z,324.00
2018-07-05T06:45:09.722Z,328.00
2018-07-05T06:46:09.725Z,344.00
2018-07-05T06:47:09.702Z,348.00
2018-07-05T06:48:09.707Z,356.00
2018-07-05T06:49:09.676Z,364.00
2018-07-05T06:50:09.669Z,376.00
2018-07-05T06:51:09.659Z,380.00
2018-07-05T06:52:09.647Z,376.00
2018-07-05T06:53:09.653Z,372.00
2018-07-05T06:54:09.665Z,368.00
2018-07-05T06:55:09.614Z,372.00
2018-07-05T06:56:09.600Z,376.00
2018-07-05T06:57:09.589Z,376.00
2018-07-05T06:58:09.599Z,372.00
2018-07-05T06:59:09.585Z,368.00
2018-07-05T07:00:09.572Z,364.00
2018-07-05T07:01:09.547Z,368.00
2018-07-05T07:02:09.534Z,368.00
2018-07-05T07:03:09.542Z,364.00
2018-07-05T07:04:09.517Z,356.00
2018-07-05T07:05:09.508Z,348.00
2018-07-05T07:06:09.492Z,344.00
2018-07-05T07:07:09.505Z,336.00
2018-07-05T07:08:09.556Z,336.00
2018-07-05T07:09:09.458Z,332.00
2018-07-05T07:10:09.448Z,336.00
2018-07-05T07:11:09.436Z,340.00
2018-07-05T07:12:09.431Z,344.00
2018-07-05T07:13:09.454Z,344.00
2018-07-05T07:14:09.404Z,344.00
2018-07-05T07:15:09.393Z,348.00
2018-07-05T07:16:09.449Z,356.00
2018-07-05T07:17:09.370Z,352.00
2018-07-05T07:18:09.378Z,356.00
2018-07-05T07:19:09.368Z,360.00
2018-07-05T07:20:09.338Z,360.00
2018-07-05T07:21:09.326Z,364.00
2018-07-05T07:22:09.320Z,368.00
2018-07-05T07:23:09.325Z,364.00
2018-07-05T07:24:09.294Z,368.00
2018-07-05T07:25:09.318Z,368.00
2018-07-05T07:26:09.271Z,372.00
2018-07-05T07:27:09.263Z,384.00
2018-07-05T07:28:09.273Z,396.00
2018-07-05T07:29:09.241Z,404.00
2018-07-05T07:30:09.231Z,412.00
2018-07-05T07:31:09.250Z,416.00
2018-07-05T07:32:09.207Z,412.00
2018-07-05T07:33:09.252Z,416.00
2018-07-05T07:34:09.230Z,432.00
2018-07-05T07:35:09.177Z,432.00
2018-07-05T07:36:09.303Z,436.00
2018-07-05T07:37:09.160Z,444.00
2018-07-05T07:38:09.185Z,448.00
2018-07-05T07:39:09.130Z,456.00
2018-07-05T07:40:09.119Z,460.00
2018-07-05T07:41:09.127Z,456.00
2018-07-05T07:42:09.095Z,456.00
2018-07-05T07:43:09.109Z,452.00
2018-07-05T07:44:09.106Z,452.00
2018-07-05T07:45:09.066Z,452.00
2018-07-05T07:46:09.054Z,464.00
2018-07-05T07:47:09.045Z,476.00
2018-07-05T07:48:09.065Z,488.00
2018-07-05T07:49:09.047Z,492.00
2018-07-05T07:50:09.012Z,500.00
2018-07-05T07:51:09.324Z,516.00
2018-07-05T07:52:08.987Z,540.00
2018-07-05T07:53:09.341Z,552.00
2018-07-05T07:54:08.999Z,576.00
2018-07-05T07:55:08.955Z,604.00
2018-07-05T07:56:08.943Z,640.00
2018-07-05T07:57:08.932Z,672.00
2018-07-05T07:58:08.932Z,688.00
2018-07-05T07:59:08.965Z,712.00
2018-07-05T08:00:08.910Z,728.00
2018-07-05T08:01:08.900Z,540.00
2018-07-05T08:02:09.630Z,552.00
2018-07-05T08:03:08.975Z,792.00
2018-07-05T08:04:08.901Z,808.00
2018-07-05T08:05:08.844Z,816.00
2018-07-05T08:06:08.836Z,820.00
2018-07-05T08:07:08.865Z,820.00
2018-07-05T08:08:08.815Z,824.00
2018-07-05T08:09:08.876Z,836.00
2018-07-05T08:10:08.795Z,844.00
2018-07-05T08:11:08.782Z,852.00
2018-07-05T08:12:08.791Z,852.00
2018-07-05T08:13:08.759Z,856.00
2018-07-05T08:14:08.764Z,856.00
2018-07-05T08:15:08.743Z,848.00
2018-07-05T08:16:08.729Z,836.00
2018-07-05T08:17:08.715Z,836.00
2018-07-05T08:18:08.705Z,836.00
2018-07-05T08:19:08.725Z,840.00
2018-07-05T08:20:08.686Z,836.00
2018-07-05T08:21:08.676Z,828.00
2018-07-05T08:22:08.671Z,824.00
2018-07-05T08:23:08.666Z,824.00
2018-07-05T08:24:08.657Z,824.00
2018-07-05T08:25:08.628Z,816.00
2018-07-05T08:26:08.643Z,796.00
2018-07-05T08:27:08.610Z,776.00
2018-07-05T08:28:08.593Z,764.00
2018-07-05T08:29:08.609Z,768.00
2018-07-05T08:30:08.570Z,784.00
2018-07-05T08:31:08.561Z,800.00
2018-07-05T08:32:08.569Z,816.00
2018-07-05T08:33:08.540Z,836.00
2018-07-05T08:34:08.548Z,856.00
2018-07-05T08:35:08.523Z,880.00
2018-07-05T08:36:08.505Z,908.00
2018-07-05T08:37:08.512Z,912.00
2018-07-05T08:38:08.483Z,876.00
2018-07-05T08:39:08.493Z,836.00
2018-07-05T08:40:08.463Z,800.00
2018-07-05T08:41:08.637Z,768.00
2018-07-05T08:42:08.443Z,740.00
2018-07-05T08:43:08.458Z,728.00
2018-07-05T08:44:08.464Z,732.00
2018-07-05T08:45:08.408Z,740.00
2018-07-05T08:46:08.398Z,740.00
2018-07-05T08:47:08.396Z,736.00
2018-07-05T08:48:08.375Z,752.00
2018-07-05T08:49:08.387Z,772.00
2018-07-05T08:50:08.352Z,792.00
2018-07-05T08:51:08.454Z,800.00
2018-07-05T08:52:08.346Z,820.00
2018-07-05T08:53:08.325Z,852.00
2018-07-05T08:54:08.347Z,880.00
2018-07-05T08:55:08.299Z,896.00
2018-07-05T08:56:08.288Z,908.00
2018-07-05T08:57:08.286Z,900.00
2018-07-05T08:58:08.277Z,896.00
2018-07-05T08:59:08.276Z,896.00
2018-07-05T09:00:08.245Z,896.00
2018-07-05T09:01:08.238Z,896.00
2018-07-05T09:02:08.220Z,892.00
2018-07-05T09:03:08.217Z,888.00
2018-07-05T09:04:08.227Z,880.00
2018-07-05T09:05:08.198Z,880.00
2018-07-05T09:06:08.182Z,880.00
2018-07-05T09:07:08.193Z,872.00
2018-07-05T09:08:08.161Z,868.00
2018-07-05T09:09:08.164Z,864.00
2018-07-05T09:10:08.145Z,864.00
2018-07-05T09:11:08.127Z,864.00
2018-07-05T09:12:08.112Z,868.00
2018-07-05T09:13:08.109Z,872.00
2018-07-05T09:14:08.114Z,888.00
2018-07-05T09:15:08.079Z,916.00
2018-07-05T09:16:08.069Z,928.00
2018-07-05T09:17:08.063Z,940.00
2018-07-05T09:18:08.133Z,968.00
2018-07-05T09:19:08.059Z,988.00
2018-07-05T09:20:08.028Z,1008.00
2018-07-05T09:21:08.013Z,1016.00
2018-07-05T09:22:08.003Z,1032.00
2018-07-05T09:23:08.093Z,1044.00
2018-07-05T09:24:08.020Z,1056.00
2018-07-05T09:25:07.968Z,1056.00
2018-07-05T09:26:07.962Z,1048.00
2018-07-05T09:27:07.949Z,1036.00
2018-07-05T09:28:07.939Z,1032.00
2018-07-05T09:29:07.949Z,1032.00
2018-07-05T09:30:07.923Z,1032.00
2018-07-05T09:31:07.960Z,1036.00
2018-07-05T09:32:07.957Z,568.00
2018-07-05T09:33:29.642Z,568.00
2018-07-05T09:34:09.112Z,572.00
2018-07-05T09:35:07.900Z,584.00
2018-07-05T09:36:07.947Z,592.00
2018-07-05T09:37:07.896Z,600.00
2018-07-05T09:38:07.874Z,604.00
2018-07-05T09:39:09.056Z,604.00
2018-07-05T09:40:07.835Z,612.00
2018-07-05T09:41:07.813Z,604.00
2018-07-05T09:42:07.789Z,604.00
2018-07-05T09:43:07.775Z,604.00
2018-07-05T09:44:07.765Z,596.00
2018-07-05T09:45:07.773Z,596.00
2018-07-05T09:46:07.744Z,600.00
2018-07-05T09:47:07.811Z,604.00
2018-07-05T09:48:07.718Z,1080.00
2018-07-05T09:49:07.708Z,1084.00
2018-07-05T09:50:07.717Z,1084.00
2018-07-05T09:51:07.689Z,1088.00
2018-07-05T09:52:07.676Z,1092.00
2018-07-05T09:53:07.701Z,1092.00
2018-07-05T09:54:07.660Z,1096.00
2018-07-05T09:55:07.676Z,1100.00
2018-07-05T09:56:07.645Z,1104.00
2018-07-05T09:57:07.634Z,1112.00
2018-07-05T09:58:07.644Z,1120.00
2018-07-05T09:59:07.600Z,1128.00
2018-07-05T10:00:07.612Z,1136.00
2018-07-05T10:01:07.629Z,1140.00
2018-07-05T10:02:07.613Z,1148.00
2018-07-05T10:03:07.581Z,1152.00
2018-07-05T10:04:07.549Z,1184.00
2018-07-05T10:05:07.564Z,1208.00
2018-07-05T10:06:07.520Z,1248.00
2018-07-05T10:07:07.544Z,1268.00
2018-07-05T10:08:07.509Z,1272.00
2018-07-05T10:09:07.492Z,1272.00
2018-07-05T10:10:07.507Z,1272.00
2018-07-05T10:11:07.468Z,1272.00
2018-07-05T10:12:07.562Z,1264.00
2018-07-05T10:13:07.559Z,1256.00
2018-07-05T10:14:07.437Z,1256.00
2018-07-05T10:15:07.466Z,1264.00
2018-07-05T10:16:07.418Z,1268.00
2018-07-05T10:17:07.402Z,1260.00
2018-07-05T10:18:07.397Z,1264.00
2018-07-05T10:19:07.380Z,1276.00
2018-07-05T10:20:07.391Z,1276.00
2018-07-05T10:21:07.395Z,1276.00
2018-07-05T10:22:07.347Z,1288.00
2018-07-05T10:23:07.334Z,1292.00
2018-07-05T10:24:07.330Z,1300.00
2018-07-05T10:25:07.376Z,1308.00
2018-07-05T10:26:07.307Z,1312.00
2018-07-05T10:27:07.296Z,1332.00
2018-07-05T10:28:07.291Z,1372.00
2018-07-05T10:29:07.270Z,1388.00
2018-07-05T10:30:07.283Z,1396.00
2018-07-05T10:31:07.254Z,1396.00
2018-07-05T10:32:07.241Z,1384.00
2018-07-05T10:33:07.259Z,1380.00
2018-07-05T10:34:07.215Z,1360.00
2018-07-05T10:35:07.233Z,1336.00
2018-07-05T10:36:07.206Z,1336.00
2018-07-05T10:37:07.181Z,1360.00
2018-07-05T10:38:07.171Z,1340.00
2018-07-05T10:39:07.186Z,1296.00
2018-07-05T10:40:07.179Z,1292.00
2018-07-05T10:41:07.140Z,1312.00
2018-07-05T10:42:07.133Z,1316.00
2018-07-05T10:43:07.134Z,1320.00
2018-07-05T10:44:07.111Z,1308.00
2018-07-05T10:45:07.116Z,1308.00
2018-07-05T10:46:07.167Z,1300.00
2018-07-05T10:47:07.072Z,1320.00
2018-07-05T10:48:07.063Z,1360.00
2018-07-05T10:49:07.093Z,1380.00
2018-07-05T10:50:07.667Z,1372.00
2018-07-05T10:51:07.031Z,1352.00
2018-07-05T10:52:07.039Z,1332.00
2018-07-05T10:53:07.014Z,1320.00
2018-07-05T10:54:06.997Z,1316.00
2018-07-05T10:55:07.008Z,1328.00
2018-07-05T10:56:06.976Z,1332.00
2018-07-05T10:57:06.974Z,1332.00
2018-07-05T10:58:06.963Z,1336.00
2018-07-05T10:59:06.948Z,1368.00
2018-07-05T11:00:06.953Z,1404.00
2018-07-05T11:01:06.929Z,1396.00
2018-07-05T11:02:06.909Z,1392.00
2018-07-05T11:03:06.906Z,1388.00
2018-07-05T11:04:06.888Z,1392.00
2018-07-05T11:05:06.897Z,1380.00
2018-07-05T11:06:06.866Z,1384.00
2018-07-05T11:07:06.857Z,1388.00
2018-07-05T11:08:06.847Z,1384.00
2018-07-05T11:09:06.846Z,1372.00
2018-07-05T11:10:06.848Z,1348.00
2018-07-05T11:11:06.814Z,1332.00
2018-07-05T11:12:06.800Z,1320.00
2018-07-05T11:13:06.789Z,1296.00
2018-07-05T11:14:06.800Z,1252.00
2018-07-05T11:15:06.776Z,1228.00
2018-07-05T11:16:06.780Z,1232.00
2018-07-05T11:17:06.750Z,1268.00
2018-07-05T11:18:06.736Z,1300.00
2018-07-05T11:19:06.727Z,1340.00
2018-07-05T11:20:06.714Z,1380.00
2018-07-05T11:21:06.763Z,1408.00
2018-07-05T11:22:06.700Z,1440.00
2018-07-05T11:23:06.685Z,1496.00
2018-07-05T11:24:06.676Z,1528.00
2018-07-05T11:25:06.676Z,1560.00
2018-07-05T11:26:06.670Z,1576.00
2018-07-05T11:27:06.640Z,1588.00
2018-07-05T11:28:06.640Z,1592.00
2018-07-05T11:29:06.624Z,1608.00
2018-07-05T11:30:06.645Z,1668.00
2018-07-05T11:31:06.613Z,1736.00
2018-07-05T11:32:06.592Z,1780.00
2018-07-05T11:33:06.575Z,1836.00
2018-07-05T11:34:06.563Z,1884.00
2018-07-05T11:35:06.555Z,1912.00
2018-07-05T11:36:06.558Z,1908.00
2018-07-05T11:37:06.529Z,1896.00
2018-07-05T11:38:06.518Z,1892.00
2018-07-05T11:39:06.508Z,1860.00
2018-07-05T11:40:06.504Z,1836.00
2018-07-05T11:41:06.504Z,1796.00
2018-07-05T11:42:06.473Z,1732.00
2018-07-05T11:43:06.463Z,1580.00
2018-07-05T11:44:06.453Z,1416.00
2018-07-05T11:45:06.443Z,1276.00
2018-07-05T11:46:06.489Z,656.00
2018-07-05T11:47:06.418Z,616.00
2018-07-05T11:48:06.409Z,604.00
2018-07-05T11:49:06.432Z,600.00
2018-07-05T11:50:06.400Z,588.00
2018-07-05T11:51:06.398Z,580.00
2018-07-05T11:52:06.396Z,576.00
2018-07-05T11:53:06.354Z,572.00
2018-07-05T11:54:06.343Z,568.00
2018-07-05T11:55:06.370Z,572.00
2018-07-05T11:56:06.341Z,580.00
2018-07-05T11:57:06.311Z,596.00
2018-07-05T11:58:06.300Z,612.00
2018-07-05T11:59:06.288Z,620.00
2018-07-05T12:00:06.291Z,628.00
2018-07-05T12:01:06.287Z,640.00
2018-07-05T12:02:06.309Z,644.00
2018-07-05T12:03:06.245Z,640.00
2018-07-05T12:04:06.248Z,640.00
2018-07-05T12:05:06.223Z,648.00
2018-07-05T12:06:06.243Z,664.00
2018-07-05T12:07:06.205Z,684.00
2018-07-05T12:08:06.190Z,712.00
2018-07-05T12:09:06.181Z,736.00
2018-07-05T12:10:06.169Z,764.00
2018-07-05T12:11:06.183Z,788.00
2018-07-05T12:12:06.148Z,816.00
2018-07-05T12:13:06.137Z,868.00
2018-07-05T12:14:06.125Z,860.00
2018-07-05T12:15:06.115Z,808.00
2018-07-05T12:16:06.125Z,788.00
2018-07-05T12:17:06.105Z,752.00
2018-07-05T12:18:06.081Z,704.00
2018-07-05T12:19:06.074Z,672.00
2018-07-05T12:20:06.060Z,660.00
2018-07-05T12:21:06.067Z,660.00
2018-07-05T12:22:06.039Z,664.00
2018-07-05T12:23:06.035Z,676.00
2018-07-05T12:24:06.081Z,688.00
2018-07-05T12:25:06.006Z,700.00
2018-07-05T12:26:06.014Z,696.00
2018-07-05T12:27:05.982Z,688.00
2018-07-05T12:28:05.980Z,668.00
2018-07-05T12:29:06.020Z,660.00
2018-07-05T12:30:05.955Z,640.00
2018-07-05T12:31:05.961Z,640.00
2018-07-05T12:32:05.932Z,640.00
2018-07-05T12:33:05.917Z,648.00
2018-07-05T12:34:05.907Z,636.00
2018-07-05T12:35:05.903Z,628.00
2018-07-05T12:36:05.905Z,632.00
2018-07-05T12:37:05.874Z,600.00
2018-07-05T12:38:05.886Z,560.00
2018-07-05T12:39:05.851Z,512.00
2018-07-05T12:40:05.843Z,464.00